sensor_id;sensor_type;location;lat;lon;timestamp;P1;durP1;ratioP1;P2;durP2;ratioP2
74543;SDS011;63016;55.030;38.710;2023-07-16T00:01:51;15.25;;;8.90;;
74543;SDS011;63016;55.030;38.710;2023-07-16T00:04:17;12.25;;;9.05;;
74543;SDS011;63016;55.030;38.710;2023-07-16T00:06:42;15.75;;;9.10;;
74543;SDS011;63016;55.030;38.710;2023-07-16T00:09:08;14.82;;;9.82;;
74543;SDS011;63016;55.030;38.710;2023-07-16T00:11:33;17.23;;;9.35;;
74543;SDS011;63016;55.030;38.710;2023-07-16T00:13:59;14.35;;;9.57;;
74543;SDS011;63016;55.030;38.710;2023-07-16T00:16:26;16.52;;;9.27;;
74543;SDS011;63016;55.030;38.710;2023-07-16T00:18:52;15.32;;;9.43;;
74543;SDS011;63016;55.030;38.710;2023-07-16T00:21:17;13.45;;;9.27;;
74543;SDS011;63016;55.030;38.710;2023-07-16T00:23:43;13.98;;;8.68;;
74543;SDS011;63016;55.030;38.710;2023-07-16T00:26:08;15.30;;;9.13;;
74543;SDS011;63016;55.030;38.710;2023-07-16T00:28:34;16.35;;;8.90;;
74543;SDS011;63016;55.030;38.710;2023-07-16T00:31:00;16.10;;;8.55;;
74543;SDS011;63016;55.030;38.710;2023-07-16T00:33:26;17.75;;;9.80;;
74543;SDS011;63016;55.030;38.710;2023-07-16T00:35:51;19.63;;;9.00;;
74543;SDS011;63016;55.030;38.710;2023-07-16T00:38:17;19.23;;;8.25;;
74543;SDS011;63016;55.030;38.710;2023-07-16T00:40:43;11.13;;;8.30;;
74543;SDS011;63016;55.030;38.710;2023-07-16T00:43:09;18.27;;;9.43;;
74543;SDS011;63016;55.030;38.710;2023-07-16T00:45:35;14.45;;;8.40;;
74543;SDS011;63016;55.030;38.710;2023-07-16T00:48:01;15.23;;;8.65;;
74543;SDS011;63016;55.030;38.710;2023-07-16T00:50:29;20.45;;;7.97;;
74543;SDS011;63016;55.030;38.710;2023-07-16T00:52:59;14.80;;;8.30;;
74543;SDS011;63016;55.030;38.710;2023-07-16T00:55:28;13.32;;;8.82;;
74543;SDS011;63016;55.030;38.710;2023-07-16T00:57:55;12.80;;;8.40;;
74543;SDS011;63016;55.030;38.710;2023-07-16T01:00:26;13.30;;;8.02;;
74543;SDS011;63016;55.030;38.710;2023-07-16T01:02:52;12.90;;;7.43;;
74543;SDS011;63016;55.030;38.710;2023-07-16T01:05:17;14.00;;;7.75;;
74543;SDS011;63016;55.030;38.710;2023-07-16T01:07:45;12.07;;;7.72;;
74543;SDS011;63016;55.030;38.710;2023-07-16T01:10:20;16.30;;;7.57;;
74543;SDS011;63016;55.030;38.710;2023-07-16T01:12:47;13.02;;;7.15;;
74543;SDS011;63016;55.030;38.710;2023-07-16T01:15:14;18.70;;;7.25;;
74543;SDS011;63016;55.030;38.710;2023-07-16T01:17:40;15.82;;;6.45;;
74543;SDS011;63016;55.030;38.710;2023-07-16T01:20:05;12.13;;;6.25;;
74543;SDS011;63016;55.030;38.710;2023-07-16T01:22:35;14.93;;;6.05;;
74543;SDS011;63016;55.030;38.710;2023-07-16T01:30:59;13.45;;;7.38;;
74543;SDS011;63016;55.030;38.710;2023-07-16T01:33:26;13.18;;;6.22;;
74543;SDS011;63016;55.030;38.710;2023-07-16T01:35:51;10.73;;;6.10;;
74543;SDS011;63016;55.030;38.710;2023-07-16T01:38:18;10.52;;;5.30;;
74543;SDS011;63016;55.030;38.710;2023-07-16T01:40:46;9.27;;;4.70;;
74543;SDS011;63016;55.030;38.710;2023-07-16T01:43:12;9.02;;;5.90;;
74543;SDS011;63016;55.030;38.710;2023-07-16T01:45:37;7.30;;;5.22;;
74543;SDS011;63016;55.030;38.710;2023-07-16T01:50:34;6.40;;;5.05;;
74543;SDS011;63016;55.030;38.710;2023-07-16T01:53:00;10.32;;;6.28;;
74543;SDS011;63016;55.030;38.710;2023-07-16T01:55:26;9.90;;;5.40;;
74543;SDS011;63016;55.030;38.710;2023-07-16T01:57:51;9.13;;;5.65;;
74543;SDS011;63016;55.030;38.710;2023-07-16T02:00:17;15.48;;;9.20;;
74543;SDS011;63016;55.030;38.710;2023-07-16T02:02:43;14.75;;;7.88;;
74543;SDS011;63016;55.030;38.710;2023-07-16T02:05:08;15.63;;;10.20;;
74543;SDS011;63016;55.030;38.710;2023-07-16T02:07:34;18.33;;;10.35;;
74543;SDS011;63016;55.030;38.710;2023-07-16T02:09:59;18.30;;;11.13;;
74543;SDS011;63016;55.030;38.710;2023-07-16T02:12:24;16.77;;;10.75;;
74543;SDS011;63016;55.030;38.710;2023-07-16T02:14:50;19.23;;;10.65;;
74543;SDS011;63016;55.030;38.710;2023-07-16T02:17:15;17.80;;;11.52;;
74543;SDS011;63016;55.030;38.710;2023-07-16T02:19:41;19.27;;;11.60;;
74543;SDS011;63016;55.030;38.710;2023-07-16T02:22:07;21.40;;;12.68;;
74543;SDS011;63016;55.030;38.710;2023-07-16T02:24:32;26.83;;;13.65;;
74543;SDS011;63016;55.030;38.710;2023-07-16T02:26:58;20.30;;;13.20;;
74543;SDS011;63016;55.030;38.710;2023-07-16T02:29:23;24.60;;;14.43;;
74543;SDS011;63016;55.030;38.710;2023-07-16T02:31:49;20.70;;;13.38;;
74543;SDS011;63016;55.030;38.710;2023-07-16T02:34:14;26.27;;;13.85;;
74543;SDS011;63016;55.030;38.710;2023-07-16T02:36:40;24.08;;;14.13;;
74543;SDS011;63016;55.030;38.710;2023-07-16T02:39:05;23.83;;;15.15;;
74543;SDS011;63016;55.030;38.710;2023-07-16T02:41:31;22.30;;;14.82;;
74543;SDS011;63016;55.030;38.710;2023-07-16T02:44:00;24.95;;;14.82;;
74543;SDS011;63016;55.030;38.710;2023-07-16T02:46:26;27.67;;;15.00;;
74543;SDS011;63016;55.030;38.710;2023-07-16T02:48:52;25.83;;;15.80;;
74543;SDS011;63016;55.030;38.710;2023-07-16T02:51:17;24.63;;;15.90;;
74543;SDS011;63016;55.030;38.710;2023-07-16T02:53:43;27.90;;;15.60;;
74543;SDS011;63016;55.030;38.710;2023-07-16T02:56:08;26.52;;;15.73;;
74543;SDS011;63016;55.030;38.710;2023-07-16T02:58:34;22.85;;;14.90;;
74543;SDS011;63016;55.030;38.710;2023-07-16T03:00:59;23.63;;;15.68;;
74543;SDS011;63016;55.030;38.710;2023-07-16T03:03:25;24.83;;;15.90;;
74543;SDS011;63016;55.030;38.710;2023-07-16T03:05:50;27.48;;;15.88;;
74543;SDS011;63016;55.030;38.710;2023-07-16T03:08:16;26.20;;;15.27;;
74543;SDS011;63016;55.030;38.710;2023-07-16T03:10:41;25.42;;;15.38;;
74543;SDS011;63016;55.030;38.710;2023-07-16T03:13:06;29.17;;;17.13;;
74543;SDS011;63016;55.030;38.710;2023-07-16T03:15:32;22.50;;;15.73;;
74543;SDS011;63016;55.030;38.710;2023-07-16T03:17:59;28.20;;;15.32;;
74543;SDS011;63016;55.030;38.710;2023-07-16T03:20:24;26.83;;;15.85;;
74543;SDS011;63016;55.030;38.710;2023-07-16T03:22:50;26.60;;;15.23;;
74543;SDS011;63016;55.030;38.710;2023-07-16T03:25:15;21.77;;;14.68;;
74543;SDS011;63016;55.030;38.710;2023-07-16T03:27:40;23.30;;;13.63;;
74543;SDS011;63016;55.030;38.710;2023-07-16T03:30:06;23.00;;;13.82;;
74543;SDS011;63016;55.030;38.710;2023-07-16T03:32:32;23.50;;;14.45;;
74543;SDS011;63016;55.030;38.710;2023-07-16T03:34:57;19.10;;;13.98;;
74543;SDS011;63016;55.030;38.710;2023-07-16T03:37:23;22.75;;;14.05;;
74543;SDS011;63016;55.030;38.710;2023-07-16T03:39:48;20.65;;;12.77;;
74543;SDS011;63016;55.030;38.710;2023-07-16T03:42:14;20.45;;;13.10;;
74543;SDS011;63016;55.030;38.710;2023-07-16T03:44:40;19.73;;;12.90;;
74543;SDS011;63016;55.030;38.710;2023-07-16T03:47:05;21.17;;;12.35;;
74543;SDS011;63016;55.030;38.710;2023-07-16T03:49:30;19.92;;;12.70;;
74543;SDS011;63016;55.030;38.710;2023-07-16T03:51:56;17.27;;;11.98;;
74543;SDS011;63016;55.030;38.710;2023-07-16T03:54:21;21.05;;;12.25;;
74543;SDS011;63016;55.030;38.710;2023-07-16T03:56:47;20.52;;;11.57;;
74543;SDS011;63016;55.030;38.710;2023-07-16T03:59:12;19.00;;;12.25;;
74543;SDS011;63016;55.030;38.710;2023-07-16T04:01:38;17.27;;;11.98;;
74543;SDS011;63016;55.030;38.710;2023-07-16T04:04:03;14.30;;;10.88;;
74543;SDS011;63016;55.030;38.710;2023-07-16T04:06:29;17.30;;;11.63;;
74543;SDS011;63016;55.030;38.710;2023-07-16T04:08:54;15.13;;;10.35;;
74543;SDS011;63016;55.030;38.710;2023-07-16T04:11:20;15.00;;;10.07;;
74543;SDS011;63016;55.030;38.710;2023-07-16T04:13:45;17.92;;;10.50;;
74543;SDS011;63016;55.030;38.710;2023-07-16T04:16:11;21.80;;;11.57;;
74543;SDS011;63016;55.030;38.710;2023-07-16T04:18:36;20.23;;;10.95;;
74543;SDS011;63016;55.030;38.710;2023-07-16T04:21:02;12.93;;;9.55;;
74543;SDS011;63016;55.030;38.710;2023-07-16T04:23:27;15.32;;;9.27;;
74543;SDS011;63016;55.030;38.710;2023-07-16T04:25:53;17.50;;;10.45;;
74543;SDS011;63016;55.030;38.710;2023-07-16T04:28:20;17.10;;;10.13;;
74543;SDS011;63016;55.030;38.710;2023-07-16T04:30:46;14.48;;;10.00;;
74543;SDS011;63016;55.030;38.710;2023-07-16T04:33:11;16.48;;;10.32;;
74543;SDS011;63016;55.030;38.710;2023-07-16T04:35:37;16.00;;;10.27;;
74543;SDS011;63016;55.030;38.710;2023-07-16T04:38:02;12.30;;;9.82;;
74543;SDS011;63016;55.030;38.710;2023-07-16T04:40:28;12.63;;;10.00;;
74543;SDS011;63016;55.030;38.710;2023-07-16T04:42:54;15.13;;;11.02;;
74543;SDS011;63016;55.030;38.710;2023-07-16T04:45:20;15.50;;;10.20;;
74543;SDS011;63016;55.030;38.710;2023-07-16T04:47:45;15.02;;;10.07;;
74543;SDS011;63016;55.030;38.710;2023-07-16T04:50:11;11.15;;;8.82;;
74543;SDS011;63016;55.030;38.710;2023-07-16T04:52:37;12.93;;;9.45;;
74543;SDS011;63016;55.030;38.710;2023-07-16T04:55:03;12.73;;;9.68;;
74543;SDS011;63016;55.030;38.710;2023-07-16T04:57:28;11.98;;;9.05;;
74543;SDS011;63016;55.030;38.710;2023-07-16T04:59:54;12.85;;;9.27;;
74543;SDS011;63016;55.030;38.710;2023-07-16T05:02:20;16.52;;;9.50;;
74543;SDS011;63016;55.030;38.710;2023-07-16T05:04:46;14.20;;;9.48;;
74543;SDS011;63016;55.030;38.710;2023-07-16T05:07:14;13.18;;;9.85;;
74543;SDS011;63016;55.030;38.710;2023-07-16T05:09:40;13.13;;;10.05;;
74543;SDS011;63016;55.030;38.710;2023-07-16T05:12:07;15.07;;;10.52;;
74543;SDS011;63016;55.030;38.710;2023-07-16T05:14:42;16.70;;;9.85;;
74543;SDS011;63016;55.030;38.710;2023-07-16T05:17:08;13.27;;;9.68;;
74543;SDS011;63016;55.030;38.710;2023-07-16T05:19:34;13.32;;;10.48;;
74543;SDS011;63016;55.030;38.710;2023-07-16T05:21:59;16.63;;;12.02;;
74543;SDS011;63016;55.030;38.710;2023-07-16T05:24:25;15.07;;;11.70;;
74543;SDS011;63016;55.030;38.710;2023-07-16T05:26:50;17.35;;;11.65;;
74543;SDS011;63016;55.030;38.710;2023-07-16T05:29:16;15.90;;;12.05;;
74543;SDS011;63016;55.030;38.710;2023-07-16T05:31:42;15.10;;;11.95;;
74543;SDS011;63016;55.030;38.710;2023-07-16T05:34:07;20.58;;;12.18;;
74543;SDS011;63016;55.030;38.710;2023-07-16T05:36:33;14.88;;;11.88;;
74543;SDS011;63016;55.030;38.710;2023-07-16T05:38:58;17.83;;;12.20;;
74543;SDS011;63016;55.030;38.710;2023-07-16T05:41:24;16.20;;;11.40;;
74543;SDS011;63016;55.030;38.710;2023-07-16T05:43:49;14.25;;;11.00;;
74543;SDS011;63016;55.030;38.710;2023-07-16T05:46:15;13.70;;;10.45;;
74543;SDS011;63016;55.030;38.710;2023-07-16T05:48:40;14.70;;;9.75;;
74543;SDS011;63016;55.030;38.710;2023-07-16T05:51:06;15.05;;;10.30;;
74543;SDS011;63016;55.030;38.710;2023-07-16T05:53:31;12.40;;;10.07;;
74543;SDS011;63016;55.030;38.710;2023-07-16T05:55:57;11.20;;;9.23;;
74543;SDS011;63016;55.030;38.710;2023-07-16T05:58:22;10.70;;;8.90;;
74543;SDS011;63016;55.030;38.710;2023-07-16T06:00:48;13.65;;;9.48;;
74543;SDS011;63016;55.030;38.710;2023-07-16T06:03:13;11.80;;;9.23;;
74543;SDS011;63016;55.030;38.710;2023-07-16T06:05:42;15.90;;;9.27;;
74543;SDS011;63016;55.030;38.710;2023-07-16T06:08:07;13.63;;;8.80;;
74543;SDS011;63016;55.030;38.710;2023-07-16T06:10:33;12.82;;;9.30;;
74543;SDS011;63016;55.030;38.710;2023-07-16T06:12:59;14.27;;;9.20;;
74543;SDS011;63016;55.030;38.710;2023-07-16T06:15:25;11.55;;;7.70;;
74543;SDS011;63016;55.030;38.710;2023-07-16T06:17:50;11.13;;;8.35;;
74543;SDS011;63016;55.030;38.710;2023-07-16T06:23:20;14.52;;;9.27;;
74543;SDS011;63016;55.030;38.710;2023-07-16T06:25:46;10.35;;;8.70;;
74543;SDS011;63016;55.030;38.710;2023-07-16T06:28:13;10.27;;;7.85;;
74543;SDS011;63016;55.030;38.710;2023-07-16T06:30:39;12.05;;;8.82;;
74543;SDS011;63016;55.030;38.710;2023-07-16T06:33:05;12.82;;;9.27;;
74543;SDS011;63016;55.030;38.710;2023-07-16T06:35:31;12.65;;;8.65;;
74543;SDS011;63016;55.030;38.710;2023-07-16T06:37:56;11.02;;;8.52;;
74543;SDS011;63016;55.030;38.710;2023-07-16T06:40:23;11.38;;;8.55;;
74543;SDS011;63016;55.030;38.710;2023-07-16T06:42:53;13.95;;;8.23;;
74543;SDS011;63016;55.030;38.710;2023-07-16T06:45:19;11.23;;;8.38;;
74543;SDS011;63016;55.030;38.710;2023-07-16T06:47:45;12.38;;;8.52;;
74543;SDS011;63016;55.030;38.710;2023-07-16T06:50:10;12.63;;;8.45;;
74543;SDS011;63016;55.030;38.710;2023-07-16T06:52:35;10.23;;;7.35;;
74543;SDS011;63016;55.030;38.710;2023-07-16T06:55:01;11.65;;;8.48;;
74543;SDS011;63016;55.030;38.710;2023-07-16T06:57:26;12.48;;;8.07;;
74543;SDS011;63016;55.030;38.710;2023-07-16T06:59:52;11.98;;;7.00;;
74543;SDS011;63016;55.030;38.710;2023-07-16T07:02:18;11.20;;;7.10;;
74543;SDS011;63016;55.030;38.710;2023-07-16T07:04:44;9.23;;;6.25;;
74543;SDS011;63016;55.030;38.710;2023-07-16T07:07:09;11.48;;;7.07;;
74543;SDS011;63016;55.030;38.710;2023-07-16T07:09:35;9.23;;;6.47;;
74543;SDS011;63016;55.030;38.710;2023-07-16T07:12:00;10.23;;;6.35;;
74543;SDS011;63016;55.030;38.710;2023-07-16T07:14:26;8.55;;;6.10;;
74543;SDS011;63016;55.030;38.710;2023-07-16T07:16:51;8.55;;;6.00;;
74543;SDS011;63016;55.030;38.710;2023-07-16T07:19:17;8.60;;;6.32;;
74543;SDS011;63016;55.030;38.710;2023-07-16T07:21:42;6.80;;;5.85;;
74543;SDS011;63016;55.030;38.710;2023-07-16T07:24:08;10.88;;;5.50;;
74543;SDS011;63016;55.030;38.710;2023-07-16T07:26:33;7.88;;;5.30;;
74543;SDS011;63016;55.030;38.710;2023-07-16T07:28:59;6.55;;;5.45;;
74543;SDS011;63016;55.030;38.710;2023-07-16T07:31:24;6.70;;;5.18;;
74543;SDS011;63016;55.030;38.710;2023-07-16T07:33:50;7.43;;;5.32;;
74543;SDS011;63016;55.030;38.710;2023-07-16T07:36:15;8.73;;;5.10;;
74543;SDS011;63016;55.030;38.710;2023-07-16T07:38:41;5.63;;;4.40;;
74543;SDS011;63016;55.030;38.710;2023-07-16T07:41:06;6.10;;;4.57;;
74543;SDS011;63016;55.030;38.710;2023-07-16T07:43:32;11.52;;;5.20;;
74543;SDS011;63016;55.030;38.710;2023-07-16T07:45:57;5.38;;;4.20;;
74543;SDS011;63016;55.030;38.710;2023-07-16T07:48:23;5.53;;;3.97;;
74543;SDS011;63016;55.030;38.710;2023-07-16T07:50:49;5.25;;;3.60;;
74543;SDS011;63016;55.030;38.710;2023-07-16T07:53:14;5.22;;;3.83;;
74543;SDS011;63016;55.030;38.710;2023-07-16T07:55:40;4.78;;;4.20;;
74543;SDS011;63016;55.030;38.710;2023-07-16T07:58:07;4.93;;;3.83;;
74543;SDS011;63016;55.030;38.710;2023-07-16T08:00:33;7.40;;;3.53;;
74543;SDS011;63016;55.030;38.710;2023-07-16T08:02:58;4.10;;;3.65;;
74543;SDS011;63016;55.030;38.710;2023-07-16T08:05:24;5.60;;;3.47;;
74543;SDS011;63016;55.030;38.710;2023-07-16T08:07:49;4.53;;;3.95;;
74543;SDS011;63016;55.030;38.710;2023-07-16T08:10:15;4.85;;;3.80;;
74543;SDS011;63016;55.030;38.710;2023-07-16T08:12:40;4.57;;;3.50;;
74543;SDS011;63016;55.030;38.710;2023-07-16T08:15:06;6.40;;;3.72;;
74543;SDS011;63016;55.030;38.710;2023-07-16T08:17:34;4.45;;;3.88;;
74543;SDS011;63016;55.030;38.710;2023-07-16T08:19:59;5.95;;;4.97;;
74543;SDS011;63016;55.030;38.710;2023-07-16T08:22:25;6.95;;;4.85;;
74543;SDS011;63016;55.030;38.710;2023-07-16T08:24:51;7.70;;;4.95;;
74543;SDS011;63016;55.030;38.710;2023-07-16T08:27:17;6.35;;;4.72;;
74543;SDS011;63016;55.030;38.710;2023-07-16T08:29:44;5.53;;;5.00;;
74543;SDS011;63016;55.030;38.710;2023-07-16T08:32:09;6.38;;;4.53;;
74543;SDS011;63016;55.030;38.710;2023-07-16T08:34:34;6.90;;;5.00;;
74543;SDS011;63016;55.030;38.710;2023-07-16T08:37:00;7.07;;;4.35;;
74543;SDS011;63016;55.030;38.710;2023-07-16T08:39:25;7.28;;;5.05;;
74543;SDS011;63016;55.030;38.710;2023-07-16T08:41:51;7.07;;;4.70;;
74543;SDS011;63016;55.030;38.710;2023-07-16T08:44:16;6.25;;;5.03;;
74543;SDS011;63016;55.030;38.710;2023-07-16T08:46:42;7.00;;;5.95;;
74543;SDS011;63016;55.030;38.710;2023-07-16T08:49:08;6.28;;;5.25;;
74543;SDS011;63016;55.030;38.710;2023-07-16T08:51:36;5.93;;;5.32;;
74543;SDS011;63016;55.030;38.710;2023-07-16T08:54:02;5.30;;;4.72;;
74543;SDS011;63016;55.030;38.710;2023-07-16T08:56:28;5.32;;;4.30;;
74543;SDS011;63016;55.030;38.710;2023-07-16T08:58:54;4.97;;;4.32;;
74543;SDS011;63016;55.030;38.710;2023-07-16T09:01:23;7.93;;;4.70;;
74543;SDS011;63016;55.030;38.710;2023-07-16T09:03:49;8.60;;;4.65;;
74543;SDS011;63016;55.030;38.710;2023-07-16T09:06:14;5.97;;;4.35;;
74543;SDS011;63016;55.030;38.710;2023-07-16T09:08:40;6.70;;;4.30;;
74543;SDS011;63016;55.030;38.710;2023-07-16T09:11:05;5.80;;;3.78;;
74543;SDS011;63016;55.030;38.710;2023-07-16T09:13:43;5.80;;;4.00;;
74543;SDS011;63016;55.030;38.710;2023-07-16T09:16:09;6.43;;;3.42;;
74543;SDS011;63016;55.030;38.710;2023-07-16T09:18:34;7.85;;;3.67;;
74543;SDS011;63016;55.030;38.710;2023-07-16T09:21:00;5.82;;;3.45;;
74543;SDS011;63016;55.030;38.710;2023-07-16T09:23:29;7.07;;;3.67;;
74543;SDS011;63016;55.030;38.710;2023-07-16T09:25:55;5.57;;;3.42;;
74543;SDS011;63016;55.030;38.710;2023-07-16T09:28:22;7.45;;;3.17;;
74543;SDS011;63016;55.030;38.710;2023-07-16T09:30:47;4.22;;;3.25;;
74543;SDS011;63016;55.030;38.710;2023-07-16T09:33:14;4.43;;;3.35;;
74543;SDS011;63016;55.030;38.710;2023-07-16T09:35:42;8.32;;;3.35;;
74543;SDS011;63016;55.030;38.710;2023-07-16T09:38:08;4.20;;;3.33;;
74543;SDS011;63016;55.030;38.710;2023-07-16T09:40:35;4.78;;;3.58;;
74543;SDS011;63016;55.030;38.710;2023-07-16T09:43:05;6.20;;;3.60;;
74543;SDS011;63016;55.030;38.710;2023-07-16T09:45:31;3.80;;;3.10;;
74543;SDS011;63016;55.030;38.710;2023-07-16T09:47:56;5.20;;;3.97;;
74543;SDS011;63016;55.030;38.710;2023-07-16T09:50:29;4.28;;;3.80;;
74543;SDS011;63016;55.030;38.710;2023-07-16T09:52:57;4.78;;;3.80;;
74543;SDS011;63016;55.030;38.710;2023-07-16T09:55:23;6.25;;;3.95;;
74543;SDS011;63016;55.030;38.710;2023-07-16T09:57:50;5.45;;;3.85;;
74543;SDS011;63016;55.030;38.710;2023-07-16T10:00:18;3.85;;;3.50;;
74543;SDS011;63016;55.030;38.710;2023-07-16T10:02:46;10.38;;;3.47;;
74543;SDS011;63016;55.030;38.710;2023-07-16T10:05:25;5.18;;;3.80;;
74543;SDS011;63016;55.030;38.710;2023-07-16T10:07:58;4.95;;;3.60;;
74543;SDS011;63016;55.030;38.710;2023-07-16T10:10:41;4.18;;;3.78;;
74543;SDS011;63016;55.030;38.710;2023-07-16T10:13:08;6.95;;;3.60;;
74543;SDS011;63016;55.030;38.710;2023-07-16T10:15:36;5.53;;;3.70;;
74543;SDS011;63016;55.030;38.710;2023-07-16T10:18:01;5.78;;;3.88;;
74543;SDS011;63016;55.030;38.710;2023-07-16T10:20:28;6.57;;;4.00;;
74543;SDS011;63016;55.030;38.710;2023-07-16T10:23:14;5.57;;;3.78;;
74543;SDS011;63016;55.030;38.710;2023-07-16T10:25:41;5.47;;;3.85;;
74543;SDS011;63016;55.030;38.710;2023-07-16T10:28:22;7.40;;;4.20;;
74543;SDS011;63016;55.030;38.710;2023-07-16T10:30:49;7.18;;;3.72;;
74543;SDS011;63016;55.030;38.710;2023-07-16T10:33:15;4.85;;;3.97;;
74543;SDS011;63016;55.030;38.710;2023-07-16T10:35:41;3.78;;;3.45;;
74543;SDS011;63016;55.030;38.710;2023-07-16T10:38:07;7.20;;;3.45;;
74543;SDS011;63016;55.030;38.710;2023-07-16T10:40:32;7.47;;;3.67;;
74543;SDS011;63016;55.030;38.710;2023-07-16T10:42:58;6.35;;;4.32;;
74543;SDS011;63016;55.030;38.710;2023-07-16T10:45:23;8.63;;;4.00;;
74543;SDS011;63016;55.030;38.710;2023-07-16T10:47:53;6.22;;;3.67;;
74543;SDS011;63016;55.030;38.710;2023-07-16T10:50:20;4.05;;;3.65;;
74543;SDS011;63016;55.030;38.710;2023-07-16T10:52:55;5.70;;;3.80;;
74543;SDS011;63016;55.030;38.710;2023-07-16T10:55:22;7.28;;;3.55;;
74543;SDS011;63016;55.030;38.710;2023-07-16T10:57:48;7.30;;;4.13;;
74543;SDS011;63016;55.030;38.710;2023-07-16T11:00:15;3.70;;;3.40;;
74543;SDS011;63016;55.030;38.710;2023-07-16T11:02:42;6.60;;;5.07;;
74543;SDS011;63016;55.030;38.710;2023-07-16T11:05:11;8.00;;;5.60;;
74543;SDS011;63016;55.030;38.710;2023-07-16T11:07:42;5.03;;;3.47;;
74543;SDS011;63016;55.030;38.710;2023-07-16T11:10:08;3.60;;;3.15;;
74543;SDS011;63016;55.030;38.710;2023-07-16T11:12:34;14.35;;;11.48;;
74543;SDS011;63016;55.030;38.710;2023-07-16T11:14:59;7.32;;;5.25;;
74543;SDS011;63016;55.030;38.710;2023-07-16T11:17:25;11.63;;;7.47;;
74543;SDS011;63016;55.030;38.710;2023-07-16T11:19:51;8.05;;;4.63;;
74543;SDS011;63016;55.030;38.710;2023-07-16T11:22:17;4.47;;;3.70;;
74543;SDS011;63016;55.030;38.710;2023-07-16T11:24:47;3.35;;;3.05;;
74543;SDS011;63016;55.030;38.710;2023-07-16T11:29:46;4.20;;;3.80;;
74543;SDS011;63016;55.030;38.710;2023-07-16T11:32:14;6.65;;;3.47;;
74543;SDS011;63016;55.030;38.710;2023-07-16T11:35:00;6.28;;;4.10;;
74543;SDS011;63016;55.030;38.710;2023-07-16T11:37:28;5.35;;;3.78;;
74543;SDS011;63016;55.030;38.710;2023-07-16T11:40:02;4.47;;;3.47;;
74543;SDS011;63016;55.030;38.710;2023-07-16T11:42:35;4.25;;;3.30;;
74543;SDS011;63016;55.030;38.710;2023-07-16T11:45:03;6.50;;;3.60;;
74543;SDS011;63016;55.030;38.710;2023-07-16T11:47:30;4.00;;;3.17;;
74543;SDS011;63016;55.030;38.710;2023-07-16T11:49:56;4.57;;;3.58;;
74543;SDS011;63016;55.030;38.710;2023-07-16T11:52:23;3.83;;;3.25;;
74543;SDS011;63016;55.030;38.710;2023-07-16T11:54:52;5.30;;;3.85;;
74543;SDS011;63016;55.030;38.710;2023-07-16T11:57:19;5.93;;;3.30;;
74543;SDS011;63016;55.030;38.710;2023-07-16T11:59:45;3.92;;;3.58;;
74543;SDS011;63016;55.030;38.710;2023-07-16T12:02:11;4.88;;;3.20;;
74543;SDS011;63016;55.030;38.710;2023-07-16T12:04:36;5.53;;;3.30;;
74543;SDS011;63016;55.030;38.710;2023-07-16T12:07:02;3.97;;;3.47;;
74543;SDS011;63016;55.030;38.710;2023-07-16T12:09:27;6.55;;;2.90;;
74543;SDS011;63016;55.030;38.710;2023-07-16T12:11:53;4.63;;;2.55;;
74543;SDS011;63016;55.030;38.710;2023-07-16T12:14:19;4.93;;;2.88;;
74543;SDS011;63016;55.030;38.710;2023-07-16T12:16:44;7.80;;;3.20;;
74543;SDS011;63016;55.030;38.710;2023-07-16T12:19:10;3.00;;;2.60;;
74543;SDS011;63016;55.030;38.710;2023-07-16T12:21:36;4.35;;;2.50;;
74543;SDS011;63016;55.030;38.710;2023-07-16T12:24:01;4.03;;;2.90;;
74543;SDS011;63016;55.030;38.710;2023-07-16T12:26:27;3.58;;;2.70;;
74543;SDS011;63016;55.030;38.710;2023-07-16T12:28:53;6.57;;;3.13;;
74543;SDS011;63016;55.030;38.710;2023-07-16T12:31:19;6.40;;;2.92;;
74543;SDS011;63016;55.030;38.710;2023-07-16T12:33:47;3.38;;;2.60;;
74543;SDS011;63016;55.030;38.710;2023-07-16T12:36:13;4.93;;;2.50;;
74543;SDS011;63016;55.030;38.710;2023-07-16T12:38:40;6.50;;;2.70;;
74543;SDS011;63016;55.030;38.710;2023-07-16T12:41:06;7.30;;;3.45;;
74543;SDS011;63016;55.030;38.710;2023-07-16T12:43:32;3.95;;;3.22;;
74543;SDS011;63016;55.030;38.710;2023-07-16T12:46:01;3.53;;;2.95;;
74543;SDS011;63016;55.030;38.710;2023-07-16T12:48:30;4.88;;;3.20;;
74543;SDS011;63016;55.030;38.710;2023-07-16T12:50:56;5.22;;;3.60;;
74543;SDS011;63016;55.030;38.710;2023-07-16T12:53:22;5.40;;;3.25;;
74543;SDS011;63016;55.030;38.710;2023-07-16T12:55:48;6.75;;;3.10;;
74543;SDS011;63016;55.030;38.710;2023-07-16T12:58:13;4.38;;;3.40;;
74543;SDS011;63016;55.030;38.710;2023-07-16T13:00:39;4.70;;;3.42;;
74543;SDS011;63016;55.030;38.710;2023-07-16T13:03:04;3.75;;;3.35;;
74543;SDS011;63016;55.030;38.710;2023-07-16T13:05:30;5.80;;;3.80;;
74543;SDS011;63016;55.030;38.710;2023-07-16T13:07:56;5.00;;;3.25;;
74543;SDS011;63016;55.030;38.710;2023-07-16T13:10:22;5.70;;;3.90;;
74543;SDS011;63016;55.030;38.710;2023-07-16T13:12:48;4.75;;;3.63;;
74543;SDS011;63016;55.030;38.710;2023-07-16T13:15:13;5.10;;;4.38;;
74543;SDS011;63016;55.030;38.710;2023-07-16T13:17:38;9.45;;;3.80;;
74543;SDS011;63016;55.030;38.710;2023-07-16T13:20:04;8.07;;;4.00;;
74543;SDS011;63016;55.030;38.710;2023-07-16T13:22:30;8.02;;;4.80;;
74543;SDS011;63016;55.030;38.710;2023-07-16T13:24:56;7.72;;;4.10;;
74543;SDS011;63016;55.030;38.710;2023-07-16T13:27:22;4.90;;;2.90;;
74543;SDS011;63016;55.030;38.710;2023-07-16T13:29:49;5.10;;;3.70;;
74543;SDS011;63016;55.030;38.710;2023-07-16T13:32:14;3.20;;;2.90;;
74543;SDS011;63016;55.030;38.710;2023-07-16T13:34:40;3.67;;;3.20;;
74543;SDS011;63016;55.030;38.710;2023-07-16T13:37:06;3.50;;;3.20;;
74543;SDS011;63016;55.030;38.710;2023-07-16T13:39:31;3.22;;;2.83;;
74543;SDS011;63016;55.030;38.710;2023-07-16T13:41:57;3.90;;;2.95;;
74543;SDS011;63016;55.030;38.710;2023-07-16T13:44:22;5.43;;;3.58;;
74543;SDS011;63016;55.030;38.710;2023-07-16T13:46:48;6.55;;;3.63;;
74543;SDS011;63016;55.030;38.710;2023-07-16T13:49:13;7.20;;;3.38;;
74543;SDS011;63016;55.030;38.710;2023-07-16T13:51:39;4.63;;;3.80;;
74543;SDS011;63016;55.030;38.710;2023-07-16T13:54:04;6.93;;;3.53;;
74543;SDS011;63016;55.030;38.710;2023-07-16T13:56:30;6.75;;;3.47;;
74543;SDS011;63016;55.030;38.710;2023-07-16T13:58:56;3.67;;;2.67;;
74543;SDS011;63016;55.030;38.710;2023-07-16T14:01:21;7.57;;;3.38;;
74543;SDS011;63016;55.030;38.710;2023-07-16T14:03:48;5.43;;;3.42;;
74543;SDS011;63016;55.030;38.710;2023-07-16T14:06:13;3.35;;;3.05;;
74543;SDS011;63016;55.030;38.710;2023-07-16T14:08:39;4.03;;;2.92;;
74543;SDS011;63016;55.030;38.710;2023-07-16T14:11:04;3.47;;;2.60;;
74543;SDS011;63016;55.030;38.710;2023-07-16T14:13:30;7.70;;;2.95;;
74543;SDS011;63016;55.030;38.710;2023-07-16T14:15:56;2.60;;;2.40;;
74543;SDS011;63016;55.030;38.710;2023-07-16T14:18:22;5.68;;;2.40;;
74543;SDS011;63016;55.030;38.710;2023-07-16T14:20:47;3.88;;;2.30;;
74543;SDS011;63016;55.030;38.710;2023-07-16T14:23:13;4.82;;;2.60;;
74543;SDS011;63016;55.030;38.710;2023-07-16T14:25:38;4.57;;;2.45;;
74543;SDS011;63016;55.030;38.710;2023-07-16T14:28:04;6.55;;;2.90;;
74543;SDS011;63016;55.030;38.710;2023-07-16T14:30:29;3.05;;;2.35;;
74543;SDS011;63016;55.030;38.710;2023-07-16T14:32:55;3.38;;;2.75;;
74543;SDS011;63016;55.030;38.710;2023-07-16T14:35:21;4.10;;;2.55;;